sensor_id;sensor_type;location;lat;lon;timestamp;temperature;humidity
75517;DHT22;64097;52.548;13.406;2024-01-30T06:02:46;10.30;49.70
75517;DHT22;64097;52.548;13.406;2024-01-30T06:05:11;10.30;49.70
75517;DHT22;64097;52.548;13.406;2024-01-30T06:07:38;10.30;49.70
75517;DHT22;64097;52.548;13.406;2024-01-30T06:10:04;10.40;49.80
75517;DHT22;64097;52.548;13.406;2024-01-30T06:12:29;10.30;49.70
75517;DHT22;64097;52.548;13.406;2024-01-30T06:14:55;10.40;49.80
75517;DHT22;64097;52.548;13.406;2024-01-30T06:17:23;10.40;49.70
75517;DHT22;64097;52.548;13.406;2024-01-30T06:19:48;10.40;49.70
75517;DHT22;64097;52.548;13.406;2024-01-30T06:22:15;10.40;49.80
75517;DHT22;64097;52.548;13.406;2024-01-30T06:24:41;10.40;49.70
75517;DHT22;64097;52.548;13.406;2024-01-30T06:27:06;10.40;49.70
75517;DHT22;64097;52.548;13.406;2024-01-30T06:29:32;10.40;49.70
75517;DHT22;64097;52.548;13.406;2024-01-30T06:31:58;10.40;49.70
75517;DHT22;64097;52.548;13.406;2024-01-30T06:34:24;10.40;49.60
75517;DHT22;64097;52.548;13.406;2024-01-30T06:36:51;10.40;49.60
75517;DHT22;64097;52.548;13.406;2024-01-30T06:39:17;10.40;49.70
75517;DHT22;64097;52.548;13.406;2024-01-30T06:41:43;10.40;49.60
75517;DHT22;64097;52.548;13.406;2024-01-30T06:44:10;10.40;49.60
75517;DHT22;64097;52.548;13.406;2024-01-30T06:46:35;10.40;49.60
75517;DHT22;64097;52.548;13.406;2024-01-30T06:49:02;10.40;49.70
75517;DHT22;64097;52.548;13.406;2024-01-30T06:51:28;10.40;49.60
75517;DHT22;64097;52.548;13.406;2024-01-30T06:53:53;10.40;49.60
75517;DHT22;64097;52.548;13.406;2024-01-30T06:56:19;10.40;49.70
75517;DHT22;64097;52.548;13.406;2024-01-30T06:58:50;10.40;49.70
75517;DHT22;64097;52.548;13.406;2024-01-30T07:01:16;10.40;49.70
75517;DHT22;64097;52.548;13.406;2024-01-30T07:03:42;10.40;49.70
75517;DHT22;64097;52.548;13.406;2024-01-30T07:06:08;10.40;49.70
75517;DHT22;64097;52.548;13.406;2024-01-30T07:08:34;10.40;49.60
75517;DHT22;64097;52.548;13.406;2024-01-30T07:11:00;10.40;49.70
75517;DHT22;64097;52.548;13.406;2024-01-30T07:13:27;10.40;49.70
75517;DHT22;64097;52.548;13.406;2024-01-30T07:15:53;10.40;49.70
75517;DHT22;64097;52.548;13.406;2024-01-30T07:18:19;10.40;49.70
75517;DHT22;64097;52.548;13.406;2024-01-30T07:20:45;10.40;49.70
75517;DHT22;64097;52.548;13.406;2024-01-30T07:23:15;10.50;49.70
75517;DHT22;64097;52.548;13.406;2024-01-30T07:25:44;10.50;49.70
75517;DHT22;64097;52.548;13.406;2024-01-30T07:28:10;10.50;49.70
75517;DHT22;64097;52.548;13.406;2024-01-30T07:30:36;10.50;49.70
75517;DHT22;64097;52.548;13.406;2024-01-30T07:33:02;10.50;49.80
75517;DHT22;64097;52.548;13.406;2024-01-30T07:35:28;10.50;49.70
75517;DHT22;64097;52.548;13.406;2024-01-30T07:37:54;10.60;49.80
75517;DHT22;64097;52.548;13.406;2024-01-30T07:40:19;10.60;49.80
75517;DHT22;64097;52.548;13.406;2024-01-30T07:42:45;10.60;49.80
75517;DHT22;64097;52.548;13.406;2024-01-30T07:45:11;10.60;49.80
75517;DHT22;64097;52.548;13.406;2024-01-30T07:47:38;10.70;49.80
75517;DHT22;64097;52.548;13.406;2024-01-30T07:50:04;10.70;49.80
75517;DHT22;64097;52.548;13.406;2024-01-30T07:52:29;10.70;50.50
75517;DHT22;64097;52.548;13.406;2024-01-30T07:54:55;10.70;49.70
75517;DHT22;64097;52.548;13.406;2024-01-30T07:57:21;10.70;49.70
75517;DHT22;64097;52.548;13.406;2024-01-30T07:59:46;10.80;49.70
75517;DHT22;64097;52.548;13.406;2024-01-30T08:02:13;10.80;49.60
75517;DHT22;64097;52.548;13.406;2024-01-30T08:04:39;10.80;49.50
75517;DHT22;64097;52.548;13.406;2024-01-30T08:07:05;10.80;49.40
75517;DHT22;64097;52.548;13.406;2024-01-30T08:09:30;10.90;49.40
75517;DHT22;64097;52.548;13.406;2024-01-30T08:11:56;10.90;49.40
75517;DHT22;64097;52.548;13.406;2024-01-30T08:14:22;10.90;49.40
75517;DHT22;64097;52.548;13.406;2024-01-30T08:16:47;10.90;49.40
75517;DHT22;64097;52.548;13.406;2024-01-30T08:19:14;10.90;49.30
75517;DHT22;64097;52.548;13.406;2024-01-30T08:21:40;11.00;49.20
75517;DHT22;64097;52.548;13.406;2024-01-30T08:24:06;11.00;49.20
75517;DHT22;64097;52.548;13.406;2024-01-30T08:26:33;11.00;49.20
75517;DHT22;64097;52.548;13.406;2024-01-30T08:28:58;11.00;49.10
75517;DHT22;64097;52.548;13.406;2024-01-30T08:31:24;11.00;49.10
75517;DHT22;64097;52.548;13.406;2024-01-30T08:33:50;11.00;49.10
75517;DHT22;64097;52.548;13.406;2024-01-30T08:36:16;11.10;49.10
75517;DHT22;64097;52.548;13.406;2024-01-30T08:38:42;11.10;49.10
75517;DHT22;64097;52.548;13.406;2024-01-30T08:41:08;11.10;49.00
75517;DHT22;64097;52.548;13.406;2024-01-30T08:43:34;11.10;49.00
75517;DHT22;64097;52.548;13.406;2024-01-30T08:46:00;11.10;49.00
75517;DHT22;64097;52.548;13.406;2024-01-30T08:48:26;11.10;49.00
75517;DHT22;64097;52.548;13.406;2024-01-30T08:50:52;11.20;49.10
75517;DHT22;64097;52.548;13.406;2024-01-30T08:53:18;11.10;49.00
75517;DHT22;64097;52.548;13.406;2024-01-30T08:55:44;11.20;49.00
75517;DHT22;64097;52.548;13.406;2024-01-30T08:58:10;11.20;49.00
75517;DHT22;64097;52.548;13.406;2024-01-30T09:00:36;11.20;49.00
75517;DHT22;64097;52.548;13.406;2024-01-30T09:03:02;11.30;49.00
75517;DHT22;64097;52.548;13.406;2024-01-30T09:05:28;11.30;49.00
75517;DHT22;64097;52.548;13.406;2024-01-30T09:07:54;11.40;49.00
75517;DHT22;64097;52.548;13.406;2024-01-30T09:10:20;11.40;48.90
75517;DHT22;64097;52.548;13.406;2024-01-30T09:12:46;11.40;48.80
75517;DHT22;64097;52.548;13.406;2024-01-30T09:15:12;11.50;48.80
75517;DHT22;64097;52.548;13.406;2024-01-30T09:17:38;11.50;48.60
75517;DHT22;64097;52.548;13.406;2024-01-30T09:20:04;11.50;48.60
75517;DHT22;64097;52.548;13.406;2024-01-30T09:22:31;11.60;48.50
75517;DHT22;64097;52.548;13.406;2024-01-30T09:24:57;11.60;48.40
75517;DHT22;64097;52.548;13.406;2024-01-30T09:27:23;11.60;48.40
75517;DHT22;64097;52.548;13.406;2024-01-30T09:29:49;11.60;48.30
75517;DHT22;64097;52.548;13.406;2024-01-30T09:32:15;11.60;48.30
75517;DHT22;64097;52.548;13.406;2024-01-30T09:34:40;11.70;48.30
75517;DHT22;64097;52.548;13.406;2024-01-30T09:37:07;11.70;48.30
75517;DHT22;64097;52.548;13.406;2024-01-30T09:39:32;11.70;48.20
75517;DHT22;64097;52.548;13.406;2024-01-30T09:42:11;11.70;48.20
75517;DHT22;64097;52.548;13.406;2024-01-30T09:44:43;11.70;48.20
75517;DHT22;64097;52.548;13.406;2024-01-30T09:47:10;11.80;48.20
75517;DHT22;64097;52.548;13.406;2024-01-30T09:49:36;11.80;48.20
75517;DHT22;64097;52.548;13.406;2024-01-30T09:52:05;11.80;48.10
75517;DHT22;64097;52.548;13.406;2024-01-30T09:54:31;11.80;48.80
75517;DHT22;64097;52.548;13.406;2024-01-30T09:57:00;11.90;48.20
75517;DHT22;64097;52.548;13.406;2024-01-30T09:59:26;11.90;48.10
75517;DHT22;64097;52.548;13.406;2024-01-30T10:01:51;11.90;48.20
75517;DHT22;64097;52.548;13.406;2024-01-30T10:04:17;11.90;48.10
75517;DHT22;64097;52.548;13.406;2024-01-30T10:06:43;12.00;48.00
75517;DHT22;64097;52.548;13.406;2024-01-30T10:09:09;12.00;48.00
75517;DHT22;64097;52.548;13.406;2024-01-30T10:11:36;12.00;47.80
75517;DHT22;64097;52.548;13.406;2024-01-30T10:14:02;12.10;47.90
75517;DHT22;64097;52.548;13.406;2024-01-30T10:16:28;12.10;47.60
75517;DHT22;64097;52.548;13.406;2024-01-30T10:18:53;12.10;47.50
75517;DHT22;64097;52.548;13.406;2024-01-30T10:21:19;12.10;47.60
75517;DHT22;64097;52.548;13.406;2024-01-30T10:23:45;12.20;47.50
75517;DHT22;64097;52.548;13.406;2024-01-30T10:26:11;12.20;47.40
75517;DHT22;64097;52.548;13.406;2024-01-30T10:28:37;12.20;47.20
75517;DHT22;64097;52.548;13.406;2024-01-30T10:31:03;12.20;47.20
75517;DHT22;64097;52.548;13.406;2024-01-30T10:33:30;12.30;47.00
75517;DHT22;64097;52.548;13.406;2024-01-30T10:36:05;12.30;46.90
75517;DHT22;64097;52.548;13.406;2024-01-30T10:38:32;12.30;46.70
75517;DHT22;64097;52.548;13.406;2024-01-30T10:40:59;12.30;46.70
75517;DHT22;64097;52.548;13.406;2024-01-30T10:46:02;12.40;46.40
75517;DHT22;64097;52.548;13.406;2024-01-30T10:48:30;12.40;46.20
75517;DHT22;64097;52.548;13.406;2024-01-30T10:50:59;12.40;46.10
75517;DHT22;64097;52.548;13.406;2024-01-30T10:53:26;12.50;46.10
75517;DHT22;64097;52.548;13.406;2024-01-30T10:55:54;12.40;45.90
75517;DHT22;64097;52.548;13.406;2024-01-30T10:58:21;12.50;46.00
75517;DHT22;64097;52.548;13.406;2024-01-30T11:00:49;12.50;45.90
75517;DHT22;64097;52.548;13.406;2024-01-30T11:03:16;12.50;45.80
75517;DHT22;64097;52.548;13.406;2024-01-30T11:05:42;12.50;45.60
75517;DHT22;64097;52.548;13.406;2024-01-30T11:08:12;12.50;45.50
75517;DHT22;64097;52.548;13.406;2024-01-30T11:10:48;12.60;45.40
75517;DHT22;64097;52.548;13.406;2024-01-30T11:13:15;12.50;45.40
75517;DHT22;64097;52.548;13.406;2024-01-30T11:15:41;12.60;45.40
75517;DHT22;64097;52.548;13.406;2024-01-30T11:18:06;12.60;45.50
75517;DHT22;64097;52.548;13.406;2024-01-30T11:20:32;12.60;46.20
75517;DHT22;64097;52.548;13.406;2024-01-30T11:22:59;12.60;45.50
75517;DHT22;64097;52.548;13.406;2024-01-30T11:25:27;12.70;45.60
75517;DHT22;64097;52.548;13.406;2024-01-30T11:27:54;12.70;45.50
75517;DHT22;64097;52.548;13.406;2024-01-30T11:30:32;12.70;45.50
75517;DHT22;64097;52.548;13.406;2024-01-30T11:33:09;12.70;45.40
75517;DHT22;64097;52.548;13.406;2024-01-30T11:35:38;12.80;45.50
75517;DHT22;64097;52.548;13.406;2024-01-30T11:38:08;12.80;45.40
75517;DHT22;64097;52.548;13.406;2024-01-30T11:40:35;12.80;45.40
75517;DHT22;64097;52.548;13.406;2024-01-30T11:43:02;12.80;45.40
75517;DHT22;64097;52.548;13.406;2024-01-30T11:45:30;12.90;45.40
75517;DHT22;64097;52.548;13.406;2024-01-30T11:47:56;12.90;45.40
75517;DHT22;64097;52.548;13.406;2024-01-30T11:50:24;13.00;45.40
75517;DHT22;64097;52.548;13.406;2024-01-30T11:52:50;13.00;45.40
75517;DHT22;64097;52.548;13.406;2024-01-30T11:55:16;13.00;45.50
75517;DHT22;64097;52.548;13.406;2024-01-30T11:57:43;13.10;45.60
75517;DHT22;64097;52.548;13.406;2024-01-30T12:00:17;13.10;45.60
75517;DHT22;64097;52.548;13.406;2024-01-30T12:02:53;13.20;45.50
75517;DHT22;64097;52.548;13.406;2024-01-30T12:05:25;13.20;45.40
75517;DHT22;64097;52.548;13.406;2024-01-30T12:07:52;13.30;45.40
75517;DHT22;64097;52.548;13.406;2024-01-30T12:10:18;13.30;45.40
75517;DHT22;64097;52.548;13.406;2024-01-30T12:12:48;13.40;45.20
75517;DHT22;64097;52.548;13.406;2024-01-30T12:15:15;13.50;45.10
75517;DHT22;64097;52.548;13.406;2024-01-30T12:17:41;13.50;45.00
75517;DHT22;64097;52.548;13.406;2024-01-30T12:20:11;13.50;45.10
75517;DHT22;64097;52.548;13.406;2024-01-30T12:22:42;13.60;45.20
75517;DHT22;64097;52.548;13.406;2024-01-30T12:25:08;13.60;45.00
75517;DHT22;64097;52.548;13.406;2024-01-30T12:27:35;13.60;45.00
75517;DHT22;64097;52.548;13.406;2024-01-30T12:30:02;13.70;45.00
75517;DHT22;64097;52.548;13.406;2024-01-30T12:32:30;13.70;44.80
75517;DHT22;64097;52.548;13.406;2024-01-30T12:34:56;13.70;44.80
75517;DHT22;64097;52.548;13.406;2024-01-30T12:37:22;13.70;44.80
75517;DHT22;64097;52.548;13.406;2024-01-30T12:39:53;13.70;44.80
75517;DHT22;64097;52.548;13.406;2024-01-30T12:42:20;13.70;44.70
75517;DHT22;64097;52.548;13.406;2024-01-30T12:44:47;13.80;44.90
75517;DHT22;64097;52.548;13.406;2024-01-30T12:47:13;13.80;44.80
75517;DHT22;64097;52.548;13.406;2024-01-30T12:49:42;13.80;44.90
75517;DHT22;64097;52.548;13.406;2024-01-30T12:52:08;13.80;44.90
75517;DHT22;64097;52.548;13.406;2024-01-30T12:54:34;13.80;44.90
75517;DHT22;64097;52.548;13.406;2024-01-30T12:57:00;13.80;44.90
75517;DHT22;64097;52.548;13.406;2024-01-30T12:59:25;13.80;44.90
75517;DHT22;64097;52.548;13.406;2024-01-30T13:01:51;13.80;44.90
75517;DHT22;64097;52.548;13.406;2024-01-30T13:04:17;13.80;44.90
75517;DHT22;64097;52.548;13.406;2024-01-30T13:06:42;13.80;44.90
75517;DHT22;64097;52.548;13.406;2024-01-30T13:09:08;13.80;44.90
75517;DHT22;64097;52.548;13.406;2024-01-30T13:11:34;13.80;45.00
75517;DHT22;64097;52.548;13.406;2024-01-30T13:14:00;13.80;45.00
75517;DHT22;64097;52.548;13.406;2024-01-30T13:16:26;13.80;45.10
75517;DHT22;64097;52.548;13.406;2024-01-30T13:18:51;13.80;45.10
75517;DHT22;64097;52.548;13.406;2024-01-30T13:21:17;13.80;45.10
75517;DHT22;64097;52.548;13.406;2024-01-30T13:23:43;13.80;45.20
75517;DHT22;64097;52.548;13.406;2024-01-30T13:26:09;13.80;45.20
75517;DHT22;64097;52.548;13.406;2024-01-30T13:28:35;13.80;45.30
75517;DHT22;64097;52.548;13.406;2024-01-30T13:31:00;13.80;45.30
75517;DHT22;64097;52.548;13.406;2024-01-30T13:33:26;13.80;45.30
75517;DHT22;64097;52.548;13.406;2024-01-30T13:35:52;13.80;45.40
75517;DHT22;64097;52.548;13.406;2024-01-30T13:38:17;13.90;45.50
75517;DHT22;64097;52.548;13.406;2024-01-30T13:40:43;13.80;45.40
75517;DHT22;64097;52.548;13.406;2024-01-30T13:43:09;13.90;45.50
75517;DHT22;64097;52.548;13.406;2024-01-30T13:45:35;13.90;45.60
75517;DHT22;64097;52.548;13.406;2024-01-30T13:48:01;13.90;45.60
75517;DHT22;64097;52.548;13.406;2024-01-30T13:50:28;13.90;45.60
75517;DHT22;64097;52.548;13.406;2024-01-30T13:52:54;13.90;45.60
75517;DHT22;64097;52.548;13.406;2024-01-30T13:55:20;13.90;45.70
75517;DHT22;64097;52.548;13.406;2024-01-30T13:57:46;13.90;45.70
